Time;durP1;ratioP1;P1;durP2;ratioP2;P2;SDS_P1;SDS_P2;PMS_P1;PMS_P2;Temp;Humidity;BMP_temperature;BMP_pressure;BME280_temperature;BME280_humidity;BME280_pressure;Samples;Min_cycle;Max_cycle;Signal;HPM_P1;HPM_P2
2024/03/18 00:02:01;;;;;;;22.23;15.25;;;;;;;;;;5022741;28;20116;-64
2024/03/18 00:04:28;;;;;;;25.23;16.20;;;;;;;;;;5009879;28;20049;-64
2024/03/18 00:06:54;;;;;;;26.98;15.98;;;;;;;;;;5004553;28;20211;-64
2024/03/18 00:09:20;;;;;;;23.27;15.45;;;;;;;;;;5004991;28;22044;-64
2024/03/18 00:11:47;;;;;;;25.63;15.27;;;;;;;;;;5003986;28;20135;-64
2024/03/18 00:14:13;;;;;;;24.92;15.38;;;;;;;;;;4992191;28;20061;-64
2024/03/18 00:16:39;;;;;;;25.42;15.85;;;;;;;;;;4978475;28;20054;-64
2024/03/18 00:19:05;;;;;;;24.02;15.20;;;;;;;;;;4997739;28;20045;-64
2024/03/18 00:21:31;;;;;;;23.02;15.82;;;;;;;;;;5011063;28;20548;-64
2024/03/18 00:23:58;;;;;;;28.45;17.00;;;;;;;;;;5014632;28;20112;-64
2024/03/18 00:26:24;;;;;;;29.27;16.38;;;;;;;;;;5008599;28;20057;-64
2024/03/18 00:28:50;;;;;;;32.42;17.02;;;;;;;;;;5008301;28;20050;-64
2024/03/18 00:31:16;;;;;;;29.02;17.35;;;;;;;;;;5012432;28;20485;-64
2024/03/18 00:33:42;;;;;;;33.42;17.25;;;;;;;;;;5021408;28;20045;-63
2024/03/18 00:36:08;;;;;;;32.15;18.17;;;;;;;;;;5013759;28;20120;-64
2024/03/18 00:38:35;;;;;;;29.63;18.88;;;;;;;;;;5012989;28;20033;-63
2024/03/18 00:43:47;;;;;;;29.48;18.45;;;;;;;;;;5010342;28;21538;-63
2024/03/18 00:46:13;;;;;;;36.63;20.33;;;;;;;;;;5010597;28;20100;-64
2024/03/18 00:48:39;;;;;;;33.65;19.98;;;;;;;;;;5014941;28;20049;-64
2024/03/18 00:51:05;;;;;;;36.22;19.83;;;;;;;;;;5018927;28;20144;-64
2024/03/18 00:53:32;;;;;;;46.45;22.25;;;;;;;;;;5012312;28;20140;-63
2024/03/18 00:55:58;;;;;;;33.33;20.67;;;;;;;;;;5010498;28;20069;-64
2024/03/18 00:58:24;;;;;;;36.80;20.45;;;;;;;;;;5017786;28;20134;-63
2024/03/18 01:00:51;;;;;;;39.40;21.77;;;;;;;;;;5025433;28;20057;-63
2024/03/18 01:03:17;;;;;;;47.10;24.33;;;;;;;;;;5014907;28;20045;-64
2024/03/18 01:05:43;;;;;;;40.92;21.90;;;;;;;;;;5016749;28;20048;-64
2024/03/18 01:08:10;;;;;;;43.00;22.67;;;;;;;;;;5018107;28;20037;-64
2024/03/18 01:10:36;;;;;;;41.70;23.73;;;;;;;;;;5010755;28;20045;-64
2024/03/18 01:13:06;;;;;;;42.80;22.85;;;;;;;;;;5013215;28;20045;-64
2024/03/18 01:15:32;;;;;;;47.95;23.40;;;;;;;;;;5009243;28;20049;-64
2024/03/18 01:17:58;;;;;;;40.67;23.48;;;;;;;;;;5007061;28;20046;-64
2024/03/18 01:20:24;;;;;;;51.45;25.38;;;;;;;;;;5009009;28;20107;-64
2024/03/18 01:22:50;;;;;;;42.67;24.65;;;;;;;;;;5013922;28;20042;-64
2024/03/18 01:25:17;;;;;;;46.33;24.35;;;;;;;;;;5009203;28;20045;-64
2024/03/18 01:27:43;;;;;;;48.17;25.80;;;;;;;;;;5009885;28;20049;-64
2024/03/18 01:30:13;;;;;;;51.22;26.45;;;;;;;;;;5009795;28;20255;-64
2024/03/18 01:32:40;;;;;;;50.13;26.70;;;;;;;;;;5015197;28;20061;-63
2024/03/18 01:35:07;;;;;;;55.00;26.92;;;;;;;;;;5009967;28;20496;-64
2024/03/18 01:37:35;;;;;;;49.13;26.38;;;;;;;;;;5013172;28;20085;-63
2024/03/18 01:40:02;;;;;;;52.58;27.08;;;;;;;;;;5012921;28;20107;-63
2024/03/18 01:42:28;;;;;;;49.75;26.10;;;;;;;;;;5008367;28;20121;-63
2024/03/18 01:44:55;;;;;;;47.78;27.83;;;;;;;;;;5015594;28;20116;-64
2024/03/18 01:47:22;;;;;;;50.75;27.27;;;;;;;;;;5016504;28;20548;-64
2024/03/18 01:49:49;;;;;;;52.10;28.50;;;;;;;;;;5007089;28;20049;-64
2024/03/18 01:52:16;;;;;;;47.10;26.65;;;;;;;;;;5019072;28;20525;-64
2024/03/18 01:54:42;;;;;;;48.80;27.48;;;;;;;;;;5008223;28;20494;-64
2024/03/18 01:57:09;;;;;;;54.75;29.02;;;;;;;;;;5011936;28;20051;-64
2024/03/18 01:59:35;;;;;;;51.45;28.00;;;;;;;;;;5011964;28;20075;-64
2024/03/18 02:02:02;;;;;;;55.70;29.40;;;;;;;;;;5020269;28;20049;-64
2024/03/18 02:04:28;;;;;;;56.17;27.20;;;;;;;;;;5013299;28;20054;-64
2024/03/18 02:06:54;;;;;;;52.40;27.90;;;;;;;;;;5006621;28;20046;-64
2024/03/18 02:09:22;;;;;;;54.33;28.02;;;;;;;;;;5010155;28;20145;-64
2024/03/18 02:11:49;;;;;;;54.90;27.50;;;;;;;;;;5019633;28;20057;-64
2024/03/18 02:14:17;;;;;;;54.55;29.48;;;;;;;;;;5012440;28;20409;-64
2024/03/18 02:16:43;;;;;;;54.28;30.05;;;;;;;;;;5009868;28;20458;-64
2024/03/18 02:19:09;;;;;;;53.53;30.10;;;;;;;;;;5005663;28;20050;-64
2024/03/18 02:21:36;;;;;;;53.53;28.90;;;;;;;;;;5005216;28;20034;-64
2024/03/18 02:24:06;;;;;;;49.83;28.40;;;;;;;;;;5009050;28;20045;-64
2024/03/18 02:26:33;;;;;;;57.22;29.00;;;;;;;;;;5007564;28;20135;-64
2024/03/18 02:28:59;;;;;;;54.53;30.60;;;;;;;;;;5008446;28;20474;-64
2024/03/18 02:31:26;;;;;;;53.83;28.88;;;;;;;;;;5010169;28;20053;-64
2024/03/18 02:33:52;;;;;;;55.00;30.27;;;;;;;;;;5014883;28;20063;-64
2024/03/18 02:36:18;;;;;;;57.05;30.52;;;;;;;;;;5002811;28;20072;-64
2024/03/18 02:38:45;;;;;;;58.00;29.70;;;;;;;;;;5011992;28;20050;-63
2024/03/18 02:41:11;;;;;;;56.17;29.23;;;;;;;;;;5015903;28;21602;-63
2024/03/18 02:43:37;;;;;;;56.85;30.52;;;;;;;;;;5008749;28;20466;-63
2024/03/18 02:46:04;;;;;;;62.15;32.95;;;;;;;;;;5013077;28;20041;-63
2024/03/18 02:48:32;;;;;;;57.15;31.38;;;;;;;;;;5014085;28;20197;-64
2024/03/18 02:50:58;;;;;;;60.03;30.25;;;;;;;;;;5010024;28;20081;-64
2024/03/18 02:53:25;;;;;;;56.22;30.17;;;;;;;;;;5017767;28;20148;-64
2024/03/18 02:55:52;;;;;;;60.13;31.60;;;;;;;;;;5019084;28;20119;-64
2024/03/18 02:58:18;;;;;;;55.88;30.73;;;;;;;;;;5020006;28;20091;-64
2024/03/18 03:00:45;;;;;;;61.92;32.30;;;;;;;;;;5020112;28;20049;-64
2024/03/18 03:03:11;;;;;;;57.85;31.35;;;;;;;;;;5020948;28;20150;-64
2024/03/18 03:05:38;;;;;;;60.75;32.42;;;;;;;;;;5015459;28;20038;-64
2024/03/18 03:08:04;;;;;;;64.85;32.83;;;;;;;;;;5021586;28;20936;-64
2024/03/18 03:10:30;;;;;;;63.08;31.65;;;;;;;;;;5020267;28;20045;-64
2024/03/18 03:12:57;;;;;;;63.78;31.92;;;;;;;;;;5018873;28;20045;-64
2024/03/18 03:15:23;;;;;;;66.22;33.47;;;;;;;;;;5018456;28;20049;-64
2024/03/18 03:17:50;;;;;;;68.10;32.53;;;;;;;;;;5020731;28;20041;-64
2024/03/18 03:20:19;;;;;;;56.78;31.08;;;;;;;;;;5016783;28;20042;-64
2024/03/18 03:22:45;;;;;;;61.63;31.23;;;;;;;;;;5019274;28;22135;-64
2024/03/18 03:25:12;;;;;;;73.00;34.22;;;;;;;;;;5020509;28;20114;-64
2024/03/18 03:27:38;;;;;;;66.95;35.15;;;;;;;;;;5020104;28;20061;-64
2024/03/18 03:30:05;;;;;;;62.85;33.53;;;;;;;;;;5019978;28;20164;-64
2024/03/18 03:32:31;;;;;;;67.28;33.92;;;;;;;;;;5015965;28;20053;-64
2024/03/18 03:34:58;;;;;;;65.78;34.22;;;;;;;;;;5022305;28;20046;-64
2024/03/18 03:37:24;;;;;;;75.78;36.45;;;;;;;;;;5020433;28;20053;-64
2024/03/18 03:39:50;;;;;;;72.32;35.38;;;;;;;;;;5015984;28;20041;-64
2024/03/18 03:42:17;;;;;;;70.55;34.50;;;;;;;;;;5015961;28;20144;-64
2024/03/18 03:44:43;;;;;;;72.43;33.50;;;;;;;;;;5019673;28;20049;-64
2024/03/18 03:47:09;;;;;;;65.68;33.65;;;;;;;;;;5022741;28;20553;-64
2024/03/18 03:49:35;;;;;;;64.80;34.55;;;;;;;;;;5020462;28;20119;-64
2024/03/18 03:52:01;;;;;;;75.10;35.78;;;;;;;;;;5021063;28;20448;-64
2024/03/18 03:54:29;;;;;;;72.75;35.15;;;;;;;;;;5020589;28;20040;-64
2024/03/18 03:56:55;;;;;;;72.18;37.50;;;;;;;;;;5019172;28;20046;-64
2024/03/18 03:59:21;;;;;;;79.57;37.25;;;;;;;;;;5015288;28;21417;-64
2024/03/18 04:01:48;;;;;;;73.38;37.15;;;;;;;;;;5015835;28;20049;-64
2024/03/18 04:04:14;;;;;;;73.32;36.63;;;;;;;;;;5018479;28;21797;-63
2024/03/18 04:06:41;;;;;;;75.38;36.55;;;;;;;;;;5011319;28;20084;-64
2024/03/18 04:09:07;;;;;;;71.25;36.33;;;;;;;;;;5010755;28;20059;-64
2024/03/18 04:11:33;;;;;;;78.28;38.50;;;;;;;;;;5013366;28;20482;-64
2024/03/18 04:13:59;;;;;;;77.60;38.40;;;;;;;;;;5011672;28;20551;-64
2024/03/18 04:16:26;;;;;;;77.93;38.92;;;;;;;;;;5007923;28;20053;-64
2024/03/18 04:18:52;;;;;;;83.82;39.58;;;;;;;;;;5011131;28;20059;-64
2024/03/18 04:21:19;;;;;;;76.60;40.28;;;;;;;;;;5007602;28;20037;-64
2024/03/18 04:23:45;;;;;;;83.22;39.80;;;;;;;;;;5007315;28;20494;-64
2024/03/18 04:26:11;;;;;;;83.20;41.00;;;;;;;;;;5012754;28;20046;-64
2024/03/18 04:28:37;;;;;;;77.85;39.58;;;;;;;;;;5016390;28;20084;-64
2024/03/18 04:31:11;;;;;;;92.72;41.20;;;;;;;;;;5011335;28;20832;-64
2024/03/18 04:33:38;;;;;;;87.28;41.10;;;;;;;;;;5023011;28;20045;-64
2024/03/18 04:36:05;;;;;;;87.43;42.53;;;;;;;;;;5029835;28;20065;-64
2024/03/18 04:38:31;;;;;;;80.25;39.15;;;;;;;;;;5024346;28;20123;-64
2024/03/18 04:40:59;;;;;;;77.50;39.45;;;;;;;;;;5017800;28;20041;-64
2024/03/18 04:43:25;;;;;;;90.50;40.80;;;;;;;;;;5016329;28;20046;-64
2024/03/18 04:45:51;;;;;;;85.55;40.38;;;;;;;;;;5021353;28;20433;-63
2024/03/18 04:48:17;;;;;;;81.07;39.55;;;;;;;;;;5027516;28;20042;-64
2024/03/18 04:50:43;;;;;;;81.30;41.13;;;;;;;;;;5026950;28;20088;-64
2024/03/18 04:53:10;;;;;;;80.20;39.60;;;;;;;;;;5018487;28;20049;-64
2024/03/18 04:55:36;;;;;;;90.05;40.80;;;;;;;;;;5011672;28;20055;-64
2024/03/18 04:58:02;;;;;;;82.38;39.75;;;;;;;;;;5011064;28;20404;-64
2024/03/18 05:00:29;;;;;;;87.93;40.53;;;;;;;;;;5015997;28;20140;-64
2024/03/18 05:02:55;;;;;;;76.47;39.60;;;;;;;;;;5025997;28;20083;-64
2024/03/18 05:05:21;;;;;;;79.93;40.90;;;;;;;;;;5011714;28;20183;-64
2024/03/18 05:07:48;;;;;;;89.70;42.03;;;;;;;;;;5008338;28;20050;-64
2024/03/18 05:10:21;;;;;;;85.03;38.95;;;;;;;;;;5011078;28;20068;-64
2024/03/18 05:12:47;;;;;;;90.00;41.72;;;;;;;;;;5010746;28;20064;-64
2024/03/18 05:15:14;;;;;;;86.90;41.38;;;;;;;;;;5019713;28;20109;-64
2024/03/18 05:17:40;;;;;;;90.90;42.20;;;;;;;;;;5014451;28;20057;-64
2024/03/18 05:20:12;;;;;;;91.53;42.40;;;;;;;;;;5019843;28;20076;-64
2024/03/18 05:22:39;;;;;;;95.35;41.03;;;;;;;;;;5015474;28;20069;-64
2024/03/18 05:25:07;;;;;;;92.85;41.53;;;;;;;;;;5010852;28;20056;-64
2024/03/18 05:27:33;;;;;;;89.80;42.15;;;;;;;;;;5013241;28;20054;-64
2024/03/18 05:30:00;;;;;;;106.28;43.92;;;;;;;;;;5015089;28;20484;-64
2024/03/18 05:32:26;;;;;;;100.80;43.65;;;;;;;;;;5014510;28;20394;-64
2024/03/18 05:34:53;;;;;;;104.35;45.42;;;;;;;;;;5026038;28;20129;-63
2024/03/18 05:37:19;;;;;;;99.85;41.95;;;;;;;;;;5029612;28;20087;-64
2024/03/18 05:39:45;;;;;;;102.03;44.58;;;;;;;;;;5020257;28;20858;-64
2024/03/18 05:42:11;;;;;;;108.93;45.70;;;;;;;;;;5006501;28;20144;-64
2024/03/18 05:44:37;;;;;;;116.05;45.40;;;;;;;;;;5031213;28;20401;-64
2024/03/18 05:47:04;;;;;;;114.40;46.50;;;;;;;;;;5014546;28;20037;-64
2024/03/18 05:49:30;;;;;;;114.32;44.65;;;;;;;;;;5017012;28;20064;-64
2024/03/18 05:51:56;;;;;;;109.13;44.83;;;;;;;;;;5016722;28;20030;-64
2024/03/18 05:54:23;;;;;;;113.60;44.90;;;;;;;;;;5017713;28;20059;-65
2024/03/18 05:56:49;;;;;;;118.53;45.85;;;;;;;;;;5013079;28;20068;-64
2024/03/18 05:59:16;;;;;;;124.75;47.70;;;;;;;;;;5010831;28;20100;-64
2024/03/18 06:01:42;;;;;;;129.13;47.50;;;;;;;;;;5010538;28;20050;-64
2024/03/18 06:04:10;;;;;;;126.70;49.08;;;;;;;;;;5006208;28;20248;-64
2024/03/18 06:06:36;;;;;;;141.88;49.90;;;;;;;;;;5016149;28;20046;-64
2024/03/18 06:09:02;;;;;;;144.85;48.50;;;;;;;;;;5016021;28;20422;-64
2024/03/18 06:11:29;;;;;;;148.07;48.53;;;;;;;;;;5007639;28;20088;-64
2024/03/18 06:13:55;;;;;;;147.73;49.53;;;;;;;;;;5014159;28;20052;-64
2024/03/18 06:16:21;;;;;;;146.10;51.15;;;;;;;;;;5019338;28;20593;-64
2024/03/18 06:18:49;;;;;;;152.95;51.10;;;;;;;;;;5022717;28;20049;-64
2024/03/18 06:21:17;;;;;;;168.85;52.92;;;;;;;;;;5024536;28;20049;-64
2024/03/18 06:23:51;;;;;;;151.15;51.10;;;;;;;;;;5021766;28;20057;-64
2024/03/18 06:26:17;;;;;;;136.88;50.80;;;;;;;;;;5023949;28;20442;-64
2024/03/18 06:28:46;;;;;;;155.52;53.58;;;;;;;;;;5021559;28;20053;-64
2024/03/18 06:31:12;;;;;;;160.73;53.00;;;;;;;;;;5019967;28;20553;-64
2024/03/18 06:33:39;;;;;;;169.15;54.15;;;;;;;;;;5023166;28;20137;-64
2024/03/18 06:36:11;;;;;;;159.15;51.40;;;;;;;;;;5022749;28;20746;-64
2024/03/18 06:38:38;;;;;;;171.05;52.00;;;;;;;;;;5024114;28;20065;-64
2024/03/18 06:41:04;;;;;;;161.50;52.45;;;;;;;;;;5022894;28;20042;-63
2024/03/18 06:43:31;;;;;;;160.43;52.75;;;;;;;;;;5024062;28;20962;-63
2024/03/18 06:45:57;;;;;;;157.20;53.42;;;;;;;;;;5027702;28;20430;-65
2024/03/18 06:48:23;;;;;;;159.85;53.25;;;;;;;;;;5031394;28;20041;-65
2024/03/18 06:50:49;;;;;;;159.07;53.28;;;;;;;;;;5030191;28;20424;-65
2024/03/18 06:53:16;;;;;;;173.30;55.80;;;;;;;;;;5028675;28;20412;-65
2024/03/18 06:55:44;;;;;;;170.68;54.97;;;;;;;;;;5030268;28;20068;-65
2024/03/18 06:58:10;;;;;;;160.65;53.40;;;;;;;;;;5028387;28;20128;-65
2024/03/18 07:00:37;;;;;;;169.90;53.55;;;;;;;;;;5028072;28;20049;-65
2024/03/18 07:03:03;;;;;;;167.52;52.97;;;;;;;;;;5030615;28;20053;-65
2024/03/18 07:05:30;;;;;;;177.45;56.08;;;;;;;;;;5024140;28;20048;-65
2024/03/18 07:07:56;;;;;;;162.00;53.45;;;;;;;;;;5026371;28;20489;-65
2024/03/18 07:10:23;;;;;;;176.20;54.00;;;;;;;;;;5025433;28;20606;-64
2024/03/18 07:12:49;;;;;;;176.85;55.05;;;;;;;;;;5023523;28;20049;-65
2024/03/18 07:15:17;;;;;;;185.38;55.25;;;;;;;;;;5027943;28;20143;-65
2024/03/18 07:17:43;;;;;;;203.85;57.03;;;;;;;;;;5026264;28;20042;-65
2024/03/18 07:20:10;;;;;;;203.77;57.85;;;;;;;;;;5022361;28;20049;-65
2024/03/18 07:22:38;;;;;;;233.75;60.92;;;;;;;;;;5027626;28;20412;-65
2024/03/18 07:25:05;;;;;;;262.52;59.35;;;;;;;;;;5026045;28;20099;-64
2024/03/18 07:27:31;;;;;;;245.48;60.40;;;;;;;;;;5023456;28;20041;-65
2024/03/18 07:29:58;;;;;;;239.93;57.88;;;;;;;;;;5023589;28;20171;-64
2024/03/18 07:32:24;;;;;;;219.75;57.78;;;;;;;;;;5023696;28;20052;-65
2024/03/18 07:34:51;;;;;;;224.70;59.53;;;;;;;;;;5024945;28;20048;-64
2024/03/18 07:37:17;;;;;;;207.35;57.80;;;;;;;;;;5025239;28;20053;-65
2024/03/18 07:39:45;;;;;;;209.38;58.17;;;;;;;;;;5025451;28;20177;-65
2024/03/18 07:42:11;;;;;;;196.63;59.42;;;;;;;;;;5026652;28;20110;-64
2024/03/18 07:44:38;;;;;;;182.35;56.42;;;;;;;;;;5022924;28;20118;-65
2024/03/18 07:47:04;;;;;;;163.30;54.75;;;;;;;;;;5024603;28;20549;-66
2024/03/18 07:49:30;;;;;;;153.40;54.45;;;;;;;;;;5027954;28;20088;-65
2024/03/18 07:51:57;;;;;;;160.70;53.95;;;;;;;;;;5029581;28;20439;-65
2024/03/18 07:54:23;;;;;;;154.57;54.33;;;;;;;;;;5029377;28;20105;-64
2024/03/18 07:56:50;;;;;;;150.32;52.88;;;;;;;;;;5034138;28;20033;-65
2024/03/18 07:59:16;;;;;;;139.98;51.72;;;;;;;;;;5037996;28;20053;-65
2024/03/18 08:01:42;;;;;;;147.18;53.92;;;;;;;;;;5009144;28;20552;-65
2024/03/18 08:04:08;;;;;;;156.93;52.22;;;;;;;;;;5022210;28;20037;-65
2024/03/18 08:06:34;;;;;;;168.07;55.25;;;;;;;;;;5020109;28;20084;-65
2024/03/18 08:09:00;;;;;;;160.00;53.95;;;;;;;;;;5021030;28;20045;-65
2024/03/18 08:11:27;;;;;;;162.55;54.47;;;;;;;;;;5022702;28;20162;-65
2024/03/18 08:13:53;;;;;;;161.00;53.63;;;;;;;;;;5023025;28;20073;-65
2024/03/18 08:16:19;;;;;;;163.20;52.95;;;;;;;;;;5023687;28;20081;-65
2024/03/18 08:18:45;;;;;;;178.63;55.67;;;;;;;;;;5025699;28;20458;-65
2024/03/18 08:21:11;;;;;;;171.20;53.90;;;;;;;;;;5024697;28;20041;-65
2024/03/18 08:23:38;;;;;;;154.65;53.38;;;;;;;;;;5022152;28;20423;-65
2024/03/18 08:26:04;;;;;;;155.07;53.03;;;;;;;;;;5028594;28;20041;-65
2024/03/18 08:28:30;;;;;;;159.95;53.10;;;;;;;;;;5028140;28;20107;-65
2024/03/18 08:30:56;;;;;;;162.45;53.17;;;;;;;;;;5025043;28;20041;-65
2024/03/18 08:33:22;;;;;;;165.55;53.97;;;;;;;;;;5031289;28;20049;-65
2024/03/18 08:35:52;;;;;;;179.30;55.50;;;;;;;;;;5032458;28;20094;-65
2024/03/18 08:38:18;;;;;;;165.10;56.22;;;;;;;;;;5026701;28;20045;-65
2024/03/18 08:40:44;;;;;;;163.15;56.20;;;;;;;;;;5032049;28;20436;-65
2024/03/18 08:43:10;;;;;;;163.50;55.25;;;;;;;;;;5027744;28;20041;-65
2024/03/18 08:45:37;;;;;;;161.50;54.97;;;;;;;;;;5012540;28;20136;-65
2024/03/18 08:48:04;;;;;;;149.45;51.97;;;;;;;;;;5029506;28;20038;-65
2024/03/18 08:50:30;;;;;;;154.73;51.92;;;;;;;;;;5028619;28;20402;-65
2024/03/18 08:52:57;;;;;;;159.88;52.65;;;;;;;;;;5028297;28;20192;-64
2024/03/18 08:55:23;;;;;;;142.63;52.63;;;;;;;;;;5039738;28;20082;-65
2024/03/18 08:57:49;;;;;;;136.52;51.30;;;;;;;;;;5035788;28;20105;-65
2024/03/18 09:00:15;;;;;;;137.02;51.60;;;;;;;;;;5032239;28;20037;-65
2024/03/18 09:02:42;;;;;;;143.02;52.30;;;;;;;;;;5025267;28;20041;-65
2024/03/18 09:05:08;;;;;;;130.40;51.97;;;;;;;;;;5023635;28;20501;-65
2024/03/18 09:07:34;;;;;;;131.68;50.33;;;;;;;;;;5024272;28;20041;-65
2024/03/18 09:10:00;;;;;;;128.80;50.80;;;;;;;;;;5027503;28;20037;-65
2024/03/18 09:12:26;;;;;;;127.97;49.25;;;;;;;;;;5007310;28;20102;-66
2024/03/18 09:14:53;;;;;;;122.22;48.47;;;;;;;;;;5028168;28;20389;-65
2024/03/18 09:17:20;;;;;;;106.50;44.75;;;;;;;;;;5024738;28;20109;-66
2024/03/18 09:19:46;;;;;;;99.03;43.22;;;;;;;;;;5022166;28;20128;-66
2024/03/18 09:22:13;;;;;;;88.43;41.55;;;;;;;;;;5024792;28;20407;-66
2024/03/18 09:24:39;;;;;;;95.60;39.10;;;;;;;;;;5024595;28;20045;-66
2024/03/18 09:27:06;;;;;;;102.22;41.58;;;;;;;;;;5019468;28;20050;-67
2024/03/18 09:29:33;;;;;;;90.72;38.67;;;;;;;;;;5019050;28;20124;-65
2024/03/18 09:31:59;;;;;;;87.45;38.45;;;;;;;;;;5024082;28;20064;-66
2024/03/18 09:34:25;;;;;;;74.75;35.85;;;;;;;;;;5025374;28;20084;-66
2024/03/18 09:36:52;;;;;;;77.32;37.13;;;;;;;;;;5020586;28;20111;-66
2024/03/18 09:39:18;;;;;;;73.45;34.00;;;;;;;;;;5023946;28;20057;-66
2024/03/18 09:41:46;;;;;;;71.20;33.97;;;;;;;;;;5021812;28;20452;-66
2024/03/18 09:44:13;;;;;;;79.35;35.42;;;;;;;;;;5023832;28;20098;-66
2024/03/18 09:46:40;;;;;;;69.53;33.35;;;;;;;;;;5026366;28;20496;-66
2024/03/18 09:49:16;;;;;;;65.50;34.33;;;;;;;;;;5022088;28;20045;-65
2024/03/18 09:51:45;;;;;;;74.68;35.17;;;;;;;;;;5023853;28;20532;-66
2024/03/18 09:54:15;;;;;;;71.53;35.47;;;;;;;;;;5023585;28;20485;-66
2024/03/18 09:56:41;;;;;;;64.40;32.97;;;;;;;;;;5028211;28;20113;-66
2024/03/18 09:59:10;;;;;;;58.78;32.88;;;;;;;;;;5023698;28;21158;-66
2024/03/18 10:01:36;;;;;;;62.67;32.85;;;;;;;;;;5026037;28;20045;-66
2024/03/18 10:04:02;;;;;;;62.65;31.83;;;;;;;;;;5027130;28;20095;-66
2024/03/18 10:06:28;;;;;;;58.72;31.90;;;;;;;;;;5027003;28;20151;-66
2024/03/18 10:08:58;;;;;;;68.15;35.20;;;;;;;;;;5024194;28;20457;-66
2024/03/18 10:11:24;;;;;;;53.47;30.55;;;;;;;;;;5027657;28;20098;-66
2024/03/18 10:13:50;;;;;;;52.00;30.65;;;;;;;;;;5025791;28;20390;-65
2024/03/18 10:16:16;;;;;;;57.25;32.00;;;;;;;;;;5025499;28;20477;-66
2024/03/18 10:18:42;;;;;;;54.20;29.80;;;;;;;;;;5020344;28;20048;-66
2024/03/18 10:21:09;;;;;;;45.25;27.70;;;;;;;;;;5021286;28;20045;-65
2024/03/18 10:23:36;;;;;;;47.22;26.15;;;;;;;;;;5022358;28;20124;-66
2024/03/18 10:26:02;;;;;;;43.20;24.10;;;;;;;;;;5023576;28;20666;-66
2024/03/18 10:28:28;;;;;;;45.72;25.90;;;;;;;;;;5019409;28;20176;-66
2024/03/18 10:30:57;;;;;;;49.05;24.17;;;;;;;;;;5022844;28;20041;-66
2024/03/18 10:33:24;;;;;;;45.67;26.13;;;;;;;;;;5023191;28;20390;-66
2024/03/18 10:35:51;;;;;;;40.45;23.35;;;;;;;;;;5020850;28;20041;-66
2024/03/18 10:38:23;;;;;;;45.47;23.08;;;;;;;;;;5021373;28;20041;-66
2024/03/18 10:40:53;;;;;;;38.17;22.30;;;;;;;;;;5023074;28;20401;-66
2024/03/18 10:43:27;;;;;;;38.08;22.80;;;;;;;;;;5022291;28;20084;-65
2024/03/18 10:45:54;;;;;;;40.33;21.05;;;;;;;;;;5021870;28;20110;-66
2024/03/18 10:48:21;;;;;;;35.88;21.63;;;;;;;;;;5023104;28;20041;-66
2024/03/18 10:50:47;;;;;;;39.28;21.98;;;;;;;;;;5023969;28;20077;-66
2024/03/18 10:53:15;;;;;;;38.47;22.73;;;;;;;;;;5022608;28;20045;-66
2024/03/18 10:55:42;;;;;;;35.17;21.10;;;;;;;;;;5024339;28;20505;-66
2024/03/18 10:58:09;;;;;;;45.40;22.42;;;;;;;;;;5022811;28;20053;-66
2024/03/18 11:00:35;;;;;;;42.97;21.58;;;;;;;;;;5023246;28;20045;-66
2024/03/18 11:03:03;;;;;;;47.83;22.65;;;;;;;;;;5019444;28;20511;-65
2024/03/18 11:05:31;;;;;;;44.88;20.95;;;;;;;;;;5034622;28;20037;-66
2024/03/18 11:08:00;;;;;;;53.03;23.67;;;;;;;;;;5033091;28;20415;-66
2024/03/18 11:10:27;;;;;;;52.67;21.70;;;;;;;;;;5031651;28;20060;-65
2024/03/18 11:12:54;;;;;;;56.30;25.73;;;;;;;;;;5028461;28;20437;-66
2024/03/18 11:15:20;;;;;;;52.03;23.08;;;;;;;;;;5031878;28;20563;-65
2024/03/18 11:17:47;;;;;;;56.03;22.92;;;;;;;;;;5025380;28;21500;-66
2024/03/18 11:20:15;;;;;;;63.28;24.45;;;;;;;;;;5031598;28;20041;-66
2024/03/18 11:22:48;;;;;;;69.32;25.15;;;;;;;;;;5031448;28;20493;-65
2024/03/18 11:25:15;;;;;;;66.70;25.27;;;;;;;;;;5019814;28;20052;-65
2024/03/18 11:27:48;;;;;;;68.93;24.65;;;;;;;;;;5021354;28;20057;-65
2024/03/18 11:30:24;;;;;;;64.10;24.42;;;;;;;;;;5020560;28;20068;-65
2024/03/18 11:32:51;;;;;;;73.82;25.00;;;;;;;;;;5027480;28;20037;-65
2024/03/18 11:35:18;;;;;;;64.63;24.48;;;;;;;;;;5030848;28;20486;-66
2024/03/18 11:37:45;;;;;;;67.32;24.85;;;;;;;;;;5016334;28;20071;-67
2024/03/18 11:40:14;;;;;;;57.15;20.75;;;;;;;;;;5030593;28;20057;-66
2024/03/18 11:42:41;;;;;;;72.03;25.02;;;;;;;;;;5024536;28;20057;-66
2024/03/18 11:45:15;;;;;;;62.95;25.90;;;;;;;;;;5012315;28;20041;-66
2024/03/18 11:47:42;;;;;;;72.15;26.33;;;;;;;;;;5024231;28;20044;-66
2024/03/18 11:50:10;;;;;;;77.10;28.55;;;;;;;;;;5026719;28;20084;-66
2024/03/18 11:52:36;;;;;;;80.60;29.40;;;;;;;;;;5028791;28;20498;-66
2024/03/18 11:55:06;;;;;;;84.18;28.35;;;;;;;;;;5027898;28;20042;-66
2024/03/18 11:57:32;;;;;;;77.15;29.10;;;;;;;;;;5019707;28;20119;-66
2024/03/18 11:59:58;;;;;;;79.03;30.85;;;;;;;;;;5016773;28;20034;-66
2024/03/18 12:02:25;;;;;;;76.85;31.83;;;;;;;;;;5022965;28;20208;-66
2024/03/18 12:04:51;;;;;;;78.65;31.55;;;;;;;;;;5025332;28;20497;-66
2024/03/18 12:07:17;;;;;;;67.63;27.00;;;;;;;;;;5023769;28;20041;-66
2024/03/18 12:09:43;;;;;;;54.30;23.00;;;;;;;;;;5023969;28;20152;-65
2024/03/18 12:12:10;;;;;;;54.20;20.75;;;;;;;;;;5025567;28;20124;-65
2024/03/18 12:14:36;;;;;;;45.00;16.95;;;;;;;;;;5023705;28;20060;-65
2024/03/18 12:17:02;;;;;;;27.60;14.40;;;;;;;;;;5025987;28;20053;-65
2024/03/18 12:19:30;;;;;;;34.25;16.25;;;;;;;;;;5010335;28;20059;-65
2024/03/18 12:21:56;;;;;;;36.45;13.18;;;;;;;;;;5029013;28;20127;-65
2024/03/18 12:29:58;;;;;;;22.90;7.78;;;;;;;;;;5032490;28;20050;-63
2024/03/18 12:32:24;;;;;;;17.05;6.78;;;;;;;;;;5023372;28;20120;-63
2024/03/18 12:34:51;;;;;;;23.15;7.15;;;;;;;;;;5020207;28;20045;-63
2024/03/18 12:37:17;;;;;;;16.67;6.65;;;;;;;;;;5024617;28;20181;-62
2024/03/18 12:39:53;;;;;;;15.60;5.55;;;;;;;;;;5012426;28;20442;-63
2024/03/18 12:42:19;;;;;;;16.80;6.65;;;;;;;;;;5024909;28;20053;-63
2024/03/18 12:44:45;;;;;;;19.27;6.05;;;;;;;;;;5030469;28;20033;-63
2024/03/18 12:47:12;;;;;;;17.00;5.97;;;;;;;;;;5034457;28;20125;-63
2024/03/18 12:49:38;;;;;;;18.73;5.70;;;;;;;;;;5032996;28;20061;-63
2024/03/18 12:52:06;;;;;;;15.57;5.13;;;;;;;;;;5033534;28;20164;-63
2024/03/18 12:54:32;;;;;;;16.42;4.03;;;;;;;;;;5034484;28;20045;-63
2024/03/18 12:56:58;;;;;;;22.25;4.95;;;;;;;;;;5032225;28;20401;-62
2024/03/18 12:59:24;;;;;;;11.48;3.88;;;;;;;;;;5033981;28;20037;-63
2024/03/18 13:01:51;;;;;;;13.32;3.38;;;;;;;;;;5031680;28;20045;-63
2024/03/18 13:04:17;;;;;;;11.55;3.88;;;;;;;;;;5026025;28;20168;-63
2024/03/18 13:06:43;;;;;;;12.95;3.17;;;;;;;;;;5027656;28;20221;-63
2024/03/18 13:09:14;;;;;;;14.13;2.97;;;;;;;;;;5025051;28;20033;-63
2024/03/18 13:11:40;;;;;;;15.45;3.00;;;;;;;;;;5025674;28;21628;-62
2024/03/18 13:14:09;;;;;;;11.23;3.47;;;;;;;;;;5026108;28;20120;-63
2024/03/18 13:16:35;;;;;;;13.73;3.50;;;;;;;;;;5029416;28;20584;-63
2024/03/18 13:19:01;;;;;;;15.70;3.03;;;;;;;;;;5026996;28;20370;-63
2024/03/18 13:21:27;;;;;;;10.80;2.97;;;;;;;;;;5029279;28;20041;-63
2024/03/18 13:23:54;;;;;;;16.52;3.85;;;;;;;;;;5028819;28;20041;-63
2024/03/18 13:26:20;;;;;;;12.90;2.80;;;;;;;;;;5025064;28;20041;-63
2024/03/18 13:28:46;;;;;;;15.90;3.00;;;;;;;;;;5029295;28;20073;-63
2024/03/18 13:31:22;;;;;;;9.85;2.65;;;;;;;;;;5029000;28;20052;-63
2024/03/18 13:33:49;;;;;;;15.52;2.70;;;;;;;;;;5028740;28;20475;-63
2024/03/18 13:36:16;;;;;;;13.13;2.80;;;;;;;;;;5025272;28;20060;-64
2024/03/18 13:38:43;;;;;;;12.73;3.67;;;;;;;;;;5020690;28;20081;-64
2024/03/18 13:41:12;;;;;;;14.07;3.00;;;;;;;;;;5022773;28;20041;-64
2024/03/18 13:43:40;;;;;;;12.95;2.88;;;;;;;;;;5024674;28;20144;-62
2024/03/18 13:46:07;;;;;;;11.45;3.05;;;;;;;;;;5024105;28;20090;-62
2024/03/18 13:48:33;;;;;;;13.35;3.40;;;;;;;;;;5026379;28;20350;-62
2024/03/18 13:51:00;;;;;;;9.18;2.65;;;;;;;;;;5028606;28;20048;-64
2024/03/18 13:53:26;;;;;;;11.93;2.85;;;;;;;;;;5030552;28;20131;-64
2024/03/18 13:55:53;;;;;;;14.65;2.80;;;;;;;;;;5024804;28;21601;-64
2024/03/18 13:58:19;;;;;;;13.65;3.30;;;;;;;;;;5005762;28;20069;-64
2024/03/18 14:00:45;;;;;;;12.25;2.83;;;;;;;;;;5024118;28;20067;-64
2024/03/18 14:03:11;;;;;;;13.18;2.58;;;;;;;;;;5025359;28;20045;-64
2024/03/18 14:05:37;;;;;;;19.23;3.30;;;;;;;;;;5020371;28;20042;-65
2024/03/18 14:08:04;;;;;;;11.60;3.03;;;;;;;;;;5025985;28;20053;-65
2024/03/18 14:10:31;;;;;;;15.50;3.08;;;;;;;;;;5026640;28;20083;-64
2024/03/18 14:12:57;;;;;;;17.58;3.88;;;;;;;;;;5019104;28;20042;-65
2024/03/18 14:15:23;;;;;;;14.30;2.88;;;;;;;;;;5021490;28;20127;-65
2024/03/18 14:17:50;;;;;;;11.45;2.92;;;;;;;;;;5021191;28;20103;-65
2024/03/18 14:20:16;;;;;;;13.45;2.88;;;;;;;;;;5022153;28;20061;-64
2024/03/18 14:22:42;;;;;;;15.18;3.28;;;;;;;;;;5024832;28;20979;-64